createdAt,value
2023-04-06T00:01:06.923Z,5.33
2023-04-06T00:11:04.760Z,5.40
2023-04-06T00:15:56.845Z,5.57
2023-04-06T00:36:06.790Z,5.60
2023-04-06T00:40:58.762Z,6.03
2023-04-06T00:46:36.943Z,5.70
2023-04-06T00:51:28.770Z,5.50
2023-04-06T00:56:20.760Z,5.50
2023-04-06T01:01:12.532Z,5.70
2023-04-06T01:06:04.377Z,5.63
2023-04-06T01:10:56.076Z,6.37
2023-04-06T01:15:48.360Z,6.43
2023-04-06T01:20:40.131Z,6.53
2023-04-06T01:25:31.850Z,6.20
2023-04-06T01:30:23.675Z,6.37
2023-04-06T01:35:15.622Z,6.57
2023-04-06T01:40:08.452Z,5.90
2023-04-06T01:45:00.206Z,6.80
2023-04-06T01:49:54.105Z,6.90
2023-04-06T01:54:45.893Z,6.70
2023-04-06T01:59:37.696Z,6.70
2023-04-06T02:04:29.461Z,6.90
2023-04-06T02:09:21.254Z,6.53
2023-04-06T02:14:13.010Z,6.47
2023-04-06T02:19:04.731Z,6.70
2023-04-06T02:23:56.717Z,7.50
2023-04-06T02:28:48.439Z,6.60
2023-04-06T02:33:40.213Z,6.10
2023-04-06T02:38:31.939Z,6.47
2023-04-06T02:43:23.801Z,6.37
2023-04-06T02:48:15.668Z,6.50
2023-04-06T02:53:07.407Z,6.97
2023-04-06T02:57:59.160Z,6.50
2023-04-06T03:02:51.083Z,6.63
2023-04-06T03:07:42.866Z,6.00
2023-04-06T03:12:34.739Z,7.00
2023-04-06T03:17:26.446Z,7.43
2023-04-06T03:22:18.162Z,7.40
2023-04-06T03:27:10.392Z,6.57
2023-04-06T03:32:02.096Z,7.20
2023-04-06T03:37:03.178Z,7.57
2023-04-06T03:42:01.104Z,7.57
2023-04-06T03:46:53.102Z,7.03
2023-04-06T03:51:44.982Z,7.33
2023-04-06T03:56:36.715Z,7.00
2023-04-06T04:01:29.041Z,7.10
2023-04-06T04:06:20.853Z,7.20
2023-04-06T04:11:16.654Z,7.90
2023-04-06T04:16:08.402Z,7.63
2023-04-06T04:21:00.182Z,8.27
2023-04-06T04:25:52.350Z,6.80
2023-04-06T04:30:44.096Z,8.07
2023-04-06T04:35:38.848Z,7.60
2023-04-06T04:40:30.797Z,7.87
2023-04-06T04:45:22.507Z,7.57
2023-04-06T04:50:15.144Z,7.87
2023-04-06T04:55:07.274Z,8.40
2023-04-06T04:59:59.116Z,7.73
2023-04-06T05:04:50.915Z,8.00
2023-04-06T05:09:42.609Z,7.73
2023-04-06T05:14:34.574Z,8.00
2023-04-06T05:19:26.402Z,7.70
2023-04-06T05:24:19.345Z,8.57
2023-04-06T05:29:12.027Z,8.23
2023-04-06T05:34:03.801Z,7.83
2023-04-06T05:38:56.742Z,9.30
2023-04-06T05:43:48.451Z,8.77
2023-04-06T05:48:40.137Z,7.80
2023-04-06T05:58:37.830Z,7.30
2023-04-06T06:03:30.412Z,7.80
2023-04-06T06:08:23.156Z,7.60
2023-04-06T06:13:14.842Z,7.97
2023-04-06T06:18:07.128Z,7.27
2023-04-06T06:28:06.192Z,7.57
2023-04-06T06:32:57.980Z,7.57
2023-04-06T06:37:49.775Z,7.37
2023-04-06T06:42:41.467Z,8.13
2023-04-06T06:47:33.350Z,7.93
2023-04-06T06:52:25.203Z,8.50
2023-04-06T06:57:17.114Z,7.80
2023-04-06T07:02:08.815Z,7.93
2023-04-06T07:07:00.611Z,8.30
2023-04-06T07:16:58.188Z,8.00
2023-04-06T07:27:13.324Z,7.90
2023-04-06T07:37:59.040Z,8.67
2023-04-06T07:53:08.619Z,8.07
2023-04-06T08:18:25.730Z,6.67
2023-04-06T08:23:18.022Z,7.30
2023-04-06T08:28:15.741Z,7.13
2023-04-06T08:33:07.556Z,7.40
2023-04-06T08:37:59.350Z,7.97
2023-04-06T08:42:56.266Z,7.53
2023-04-06T08:58:09.722Z,7.53
2023-04-06T09:08:13.144Z,7.77
2023-04-06T09:13:15.368Z,7.87
2023-04-06T09:18:08.442Z,7.80
2023-04-06T09:28:08.220Z,7.90
2023-04-06T09:59:14.898Z,7.83
2023-04-06T10:04:30.108Z,7.47
2023-04-06T10:14:44.513Z,7.33
2023-04-06T10:20:15.857Z,7.33
2023-04-06T10:30:19.505Z,8.37
2023-04-06T10:35:18.564Z,7.13
2023-04-06T11:11:55.275Z,5.57
2023-04-06T11:54:57.330Z,4.27
2023-04-06T11:59:50.852Z,3.80
2023-04-06T12:40:46.065Z,3.80
2023-04-06T13:01:10.826Z,3.57
2023-04-06T14:02:29.617Z,4.57
2023-04-06T14:07:24.485Z,4.50
2023-04-06T14:12:24.076Z,4.40
2023-04-06T14:17:15.742Z,4.77
2023-04-06T14:22:07.818Z,4.37
2023-04-06T14:32:07.577Z,4.30
2023-04-06T14:36:59.804Z,4.00
2023-04-06T14:46:57.943Z,5.15
2023-04-06T14:51:57.902Z,4.97
2023-04-06T14:56:54.762Z,4.35
2023-04-06T15:01:48.672Z,4.70
2023-04-06T15:06:41.157Z,4.45
2023-04-06T15:11:32.938Z,3.60
2023-04-06T15:16:24.674Z,4.38
2023-04-06T15:21:16.368Z,4.40
2023-04-06T15:26:08.118Z,4.18
2023-04-06T15:30:59.890Z,3.35
2023-04-06T15:40:58.440Z,2.80
2023-04-06T15:45:50.176Z,3.08
2023-04-06T15:55:47.556Z,3.43
2023-04-06T16:00:39.304Z,3.40
2023-04-06T16:05:34.448Z,3.33
2023-04-06T16:10:31.735Z,3.30
2023-04-06T16:15:23.407Z,3.30
2023-04-06T16:20:15.900Z,3.50
2023-04-06T16:30:14.779Z,3.90
2023-04-06T16:40:13.992Z,2.47
2023-04-06T16:45:06.694Z,2.40
2023-04-06T16:50:05.370Z,2.97
2023-04-06T17:00:09.913Z,2.63
2023-04-06T17:05:03.503Z,2.80
2023-04-06T17:09:55.214Z,2.40
2023-04-06T17:14:46.891Z,2.80
2023-04-06T17:19:38.580Z,2.80
2023-04-06T17:24:30.234Z,2.37
2023-04-06T17:29:21.920Z,2.13
2023-04-06T17:34:13.620Z,2.43
2023-04-06T17:39:05.552Z,2.20
2023-04-06T17:43:57.222Z,2.30
2023-04-06T17:48:49.242Z,2.47
2023-04-06T17:53:41.937Z,2.43
2023-04-06T17:58:33.782Z,2.10
2023-04-06T18:03:25.634Z,2.20
2023-04-06T18:08:17.403Z,2.10
2023-04-06T18:13:09.466Z,2.60
2023-04-06T18:18:01.258Z,2.37
2023-04-06T18:22:53.199Z,2.33
2023-04-06T18:27:44.959Z,2.40
2023-04-06T18:32:36.757Z,2.77
2023-04-06T18:37:28.486Z,2.33
2023-04-06T18:42:20.624Z,2.80
2023-04-06T18:47:12.679Z,2.00
2023-04-06T18:52:07.733Z,2.40
2023-04-06T18:57:00.171Z,1.87
2023-04-06T19:01:58.071Z,1.50
2023-04-06T19:17:30.259Z,1.50
2023-04-06T19:22:29.611Z,1.80
2023-04-06T19:27:24.871Z,1.70
2023-04-06T19:32:19.682Z,1.63
2023-04-06T19:42:21.519Z,1.47
2023-04-06T20:13:37.590Z,2.77
2023-04-06T20:18:31.026Z,2.53
2023-04-06T20:23:23.671Z,2.97
2023-04-06T20:28:16.851Z,3.27
2023-04-06T20:33:09.200Z,2.90
2023-04-06T20:38:01.664Z,2.90
2023-04-06T20:42:57.372Z,3.10
2023-04-06T20:47:54.737Z,3.20
2023-04-06T20:52:51.035Z,3.10
2023-04-06T20:57:43.651Z,3.57
2023-04-06T21:02:37.141Z,3.37
2023-04-06T21:07:30.580Z,3.27
2023-04-06T21:12:22.473Z,3.27
2023-04-06T21:17:14.130Z,3.33
2023-04-06T21:22:05.811Z,3.57
2023-04-06T21:26:57.467Z,3.93
2023-04-06T21:31:49.210Z,4.23
2023-04-06T21:36:41.934Z,4.40
2023-04-06T21:41:34.235Z,4.73
2023-04-06T21:46:26.498Z,4.33
2023-04-06T21:51:20.078Z,4.93
2023-04-06T21:56:13.232Z,4.47
2023-04-06T22:01:12.110Z,5.00
2023-04-06T22:06:06.549Z,4.77
2023-04-06T22:11:00.993Z,5.47
2023-04-06T22:15:54.633Z,4.90
2023-04-06T22:20:47.498Z,5.13
2023-04-06T22:25:47.315Z,5.13
2023-04-06T22:30:39.830Z,5.43
2023-04-06T22:35:35.061Z,5.33
2023-04-06T22:40:30.457Z,5.70
2023-04-06T22:45:32.494Z,5.27
2023-04-06T22:50:32.305Z,5.00
2023-04-06T22:55:25.959Z,4.60
2023-04-06T23:00:19.767Z,5.60
2023-04-06T23:05:11.522Z,5.53
2023-04-06T23:10:03.566Z,4.80
2023-04-06T23:14:55.361Z,4.90
2023-04-06T23:19:48.208Z,4.70
2023-04-06T23:24:39.872Z,4.83
2023-04-06T23:29:31.967Z,5.40
2023-04-06T23:34:23.633Z,4.87
2023-04-06T23:39:15.604Z,4.87
2023-04-06T23:44:07.290Z,5.03
2023-04-06T23:48:58.957Z,5.33
2023-04-06T23:53:50.702Z,5.13
2023-04-06T23:58:42.371Z,5.40
